createdAt,value
2018-09-08T00:00:25.743Z,22.52
2018-09-08T00:01:29.134Z,22.52
2018-09-08T00:02:32.718Z,22.51
2018-09-08T00:03:36.147Z,22.47
2018-09-08T00:04:39.557Z,22.51
2018-09-08T00:05:42.968Z,22.51
2018-09-08T00:06:50.465Z,22.51
2018-09-08T00:07:53.824Z,22.50
2018-09-08T00:08:57.245Z,22.50
2018-09-08T00:10:00.983Z,22.50
2018-09-08T00:11:04.457Z,22.49
2018-09-08T00:12:07.840Z,22.49
2018-09-08T00:13:11.220Z,22.50
2018-09-08T00:14:14.602Z,22.49
2018-09-08T00:15:23.325Z,22.50
2018-09-08T00:16:32.152Z,22.49
2018-09-08T00:17:40.932Z,22.51
2018-09-08T00:18:49.539Z,22.50
2018-09-08T00:19:58.234Z,22.46
2018-09-08T00:21:07.066Z,22.51
2018-09-08T00:22:15.764Z,22.51
2018-09-08T00:23:24.536Z,22.53
2018-09-08T00:24:33.227Z,22.51
2018-09-08T00:25:41.980Z,22.51
2018-09-08T00:26:44.575Z,22.50
2018-09-08T00:27:53.251Z,22.52
2018-09-08T00:29:10.972Z,22.52
2018-09-08T00:30:15.276Z,22.53
2018-09-08T00:31:20.292Z,22.53
2018-09-08T00:32:24.069Z,22.52
2018-09-08T00:33:27.480Z,22.51
2018-09-08T00:34:30.925Z,22.52
2018-09-08T00:35:34.445Z,22.51
2018-09-08T00:36:37.860Z,22.52
2018-09-08T00:37:41.258Z,22.51
2018-09-08T00:38:44.671Z,22.52
2018-09-08T00:39:52.410Z,22.54
2018-09-08T00:40:55.850Z,22.54
2018-09-08T00:41:59.230Z,22.55
2018-09-08T00:43:02.709Z,22.55
2018-09-08T00:44:06.372Z,22.55
2018-09-08T00:45:09.799Z,22.54
2018-09-08T00:46:13.162Z,22.53
2018-09-08T00:47:16.863Z,22.55
2018-09-08T00:48:20.248Z,22.56
2018-09-08T00:49:23.912Z,22.54
2018-09-08T00:50:27.300Z,22.55
2018-09-08T00:51:30.773Z,22.55
2018-09-08T00:52:34.245Z,22.51
2018-09-08T00:53:37.648Z,22.54
2018-09-08T00:54:41.018Z,22.54
2018-09-08T00:55:44.385Z,22.52
2018-09-08T00:56:47.845Z,22.53
2018-09-08T00:57:51.253Z,22.48
2018-09-08T00:58:59.897Z,22.52
2018-09-08T01:00:03.384Z,22.52
2018-09-08T01:01:06.822Z,22.50
2018-09-08T01:02:10.231Z,22.52
2018-09-08T01:03:13.789Z,22.46
2018-09-08T01:04:17.223Z,22.49
2018-09-08T01:05:20.623Z,22.50
2018-09-08T01:06:24.049Z,22.50
2018-09-08T01:07:30.951Z,22.48
2018-09-08T01:08:34.360Z,22.49
2018-09-08T01:09:38.023Z,22.49
2018-09-08T01:10:41.462Z,22.49
2018-09-08T01:11:44.881Z,22.48
2018-09-08T01:12:48.268Z,22.43
2018-09-08T01:13:52.036Z,22.48
2018-09-08T01:14:55.503Z,22.49
2018-09-08T01:15:58.968Z,22.48
2018-09-08T01:17:02.409Z,22.48
2018-09-08T01:18:05.896Z,22.48
2018-09-08T01:19:09.340Z,22.46
2018-09-08T01:20:12.752Z,22.45
2018-09-08T01:21:16.169Z,22.46
2018-09-08T01:22:19.566Z,22.46
2018-09-08T01:23:22.963Z,22.46
2018-09-08T01:24:26.381Z,22.45
2018-09-08T01:25:29.814Z,22.46
2018-09-08T01:26:33.226Z,22.41
2018-09-08T01:27:36.611Z,22.45
2018-09-08T01:28:39.958Z,22.46
2018-09-08T01:29:43.373Z,22.44
2018-09-08T01:30:46.757Z,22.42
2018-09-08T01:31:50.124Z,22.45
2018-09-08T01:32:53.480Z,22.45
2018-09-08T01:33:56.927Z,22.46
2018-09-08T01:35:00.350Z,22.46
2018-09-08T01:36:03.764Z,22.47
2018-09-08T01:37:07.225Z,22.47
2018-09-08T01:38:10.633Z,22.48
2018-09-08T01:39:13.997Z,22.49
2018-09-08T01:40:17.418Z,22.49
2018-09-08T01:41:20.800Z,22.49
2018-09-08T01:42:24.199Z,22.50
2018-09-08T01:43:27.563Z,22.50
2018-09-08T01:44:30.972Z,22.51
2018-09-08T01:45:34.364Z,22.51
2018-09-08T01:46:37.741Z,22.52
2018-09-08T01:47:41.419Z,22.52
2018-09-08T01:48:44.846Z,22.51
2018-09-08T01:49:48.302Z,22.51
2018-09-08T01:50:51.763Z,22.51
2018-09-08T01:51:55.187Z,22.51
2018-09-08T01:52:58.589Z,22.50
2018-09-08T01:54:01.986Z,22.51
2018-09-08T01:55:05.415Z,22.50
2018-09-08T01:56:08.838Z,22.49
2018-09-08T01:57:12.251Z,22.51
2018-09-08T01:58:15.677Z,22.50
2018-09-08T01:59:19.079Z,22.50
2018-09-08T02:00:22.497Z,22.49
2018-09-08T02:01:25.942Z,22.46
2018-09-08T02:02:29.322Z,22.44
2018-09-08T02:03:32.808Z,22.49
2018-09-08T02:04:36.224Z,22.49
2018-09-08T02:05:39.620Z,22.44
2018-09-08T02:06:43.044Z,22.48
2018-09-08T02:07:46.476Z,22.48
2018-09-08T02:08:49.880Z,22.47
2018-09-08T02:09:53.314Z,22.46
2018-09-08T02:10:56.766Z,22.47
2018-09-08T02:12:00.840Z,22.46
2018-09-08T02:13:04.263Z,22.47
2018-09-08T02:14:07.908Z,22.47
2018-09-08T02:15:11.270Z,22.46
2018-09-08T02:16:14.673Z,22.46
2018-09-08T02:17:18.069Z,22.47
2018-09-08T02:18:21.452Z,22.46
2018-09-08T02:19:24.814Z,22.46
2018-09-08T02:20:28.243Z,22.47
2018-09-08T02:21:31.642Z,22.47
2018-09-08T02:22:35.032Z,22.47
2018-09-08T02:23:38.388Z,22.46
2018-09-08T02:24:41.764Z,22.41
2018-09-08T02:25:45.244Z,22.46
2018-09-08T02:26:48.748Z,22.47
2018-09-08T02:27:52.185Z,22.46
2018-09-08T02:28:55.769Z,22.46
2018-09-08T02:29:59.153Z,22.46
2018-09-08T02:31:02.718Z,22.47
2018-09-08T02:32:06.195Z,22.45
2018-09-08T02:33:09.633Z,22.45
2018-09-08T02:34:13.032Z,22.45
2018-09-08T02:35:16.436Z,22.45
2018-09-08T02:36:19.849Z,22.45
2018-09-08T02:37:23.249Z,22.45
2018-09-08T02:38:26.701Z,22.45
2018-09-08T02:39:30.074Z,22.46
2018-09-08T02:40:33.457Z,22.46
2018-09-08T02:41:36.951Z,22.46
2018-09-08T02:42:40.338Z,22.45
2018-09-08T02:43:43.729Z,22.42
2018-09-08T02:44:47.146Z,22.45
2018-09-08T02:45:50.545Z,22.45
2018-09-08T02:46:53.974Z,22.45
2018-09-08T02:47:57.384Z,22.45
2018-09-08T02:49:00.829Z,22.45
2018-09-08T02:50:15.498Z,22.45
2018-09-08T02:51:17.748Z,22.44
2018-09-08T02:52:19.992Z,22.43
2018-09-08T02:53:22.240Z,22.42
2018-09-08T02:54:24.466Z,22.42
2018-09-08T02:55:26.894Z,22.42
2018-09-08T02:56:29.129Z,22.41
2018-09-08T02:57:31.355Z,22.38
2018-09-08T02:58:33.584Z,22.40
2018-09-08T02:59:35.845Z,22.39
2018-09-08T03:00:38.078Z,22.39
2018-09-08T03:01:40.313Z,22.39
2018-09-08T03:02:42.582Z,22.38
2018-09-08T03:03:44.833Z,22.38
2018-09-08T03:04:47.244Z,22.37
2018-09-08T03:05:49.515Z,22.36
2018-09-08T03:06:51.732Z,22.35
2018-09-08T03:07:53.954Z,22.34
2018-09-08T03:08:56.196Z,22.34
2018-09-08T03:09:58.491Z,22.35
2018-09-08T03:11:00.740Z,22.33
2018-09-08T03:12:02.988Z,22.34
2018-09-08T03:13:05.236Z,22.33
2018-09-08T03:14:07.456Z,22.33
2018-09-08T03:15:09.724Z,22.32
2018-09-08T03:16:11.970Z,22.33
2018-09-08T03:17:14.226Z,22.32
2018-09-08T03:18:16.486Z,22.32
2018-09-08T03:19:18.747Z,22.31
2018-09-08T03:20:21.023Z,22.26
2018-09-08T03:21:23.328Z,22.30
2018-09-08T03:22:25.546Z,22.29
2018-09-08T03:23:27.788Z,22.30
2018-09-08T03:24:30.040Z,22.28
2018-09-08T03:25:32.317Z,22.27
2018-09-08T03:26:34.578Z,22.28
2018-09-08T03:27:36.814Z,22.26
2018-09-08T03:28:39.046Z,22.26
2018-09-08T03:29:41.302Z,22.27
2018-09-08T03:30:43.562Z,22.26
2018-09-08T03:31:45.798Z,22.20
2018-09-08T03:32:48.046Z,22.24
2018-09-08T03:33:50.291Z,22.24
2018-09-08T03:34:52.527Z,22.24
2018-09-08T03:35:54.783Z,22.24
2018-09-08T03:36:57.030Z,22.24
2018-09-08T03:37:59.290Z,22.23
2018-09-08T03:39:01.777Z,22.24
2018-09-08T03:40:04.037Z,22.22
2018-09-08T03:41:06.301Z,22.24
2018-09-08T03:42:08.568Z,22.24
2018-09-08T03:43:10.794Z,22.24
2018-09-08T03:44:13.416Z,22.23
2018-09-08T03:45:15.672Z,22.25
2018-09-08T03:46:17.928Z,22.24
2018-09-08T03:47:20.162Z,22.20
2018-09-08T03:48:22.410Z,22.25
2018-09-08T03:49:24.657Z,22.25
2018-09-08T03:50:26.877Z,22.25
2018-09-08T03:51:29.124Z,22.24
2018-09-08T03:52:31.422Z,22.25
2018-09-08T03:53:33.678Z,22.24
2018-09-08T03:54:35.909Z,22.24
2018-09-08T03:55:38.283Z,22.25
2018-09-08T03:56:40.566Z,22.25
2018-09-08T03:57:42.801Z,22.22
2018-09-08T03:58:45.051Z,22.24
2018-09-08T03:59:47.288Z,22.23
2018-09-08T04:00:49.523Z,22.23
2018-09-08T04:01:51.788Z,22.23
2018-09-08T04:02:55.165Z,22.21
2018-09-08T04:03:58.590Z,22.24
2018-09-08T04:05:01.998Z,22.25
2018-09-08T04:06:05.416Z,22.24
2018-09-08T04:07:08.871Z,22.25
2018-09-08T04:08:12.274Z,22.20
2018-09-08T04:09:15.664Z,22.23
2018-09-08T04:10:19.053Z,22.20
2018-09-08T04:11:22.537Z,22.25
2018-09-08T04:12:25.853Z,22.26
2018-09-08T04:13:29.263Z,22.21
2018-09-08T04:14:32.633Z,22.25
2018-09-08T04:15:36.018Z,22.25
2018-09-08T04:16:39.517Z,22.26
2018-09-08T04:17:42.965Z,22.26
2018-09-08T04:18:46.421Z,22.26
2018-09-08T04:19:49.797Z,22.27
2018-09-08T04:20:53.161Z,22.27
2018-09-08T04:21:56.570Z,22.27
2018-09-08T04:23:00.013Z,22.28
2018-09-08T04:24:03.471Z,22.27
2018-09-08T04:25:07.388Z,22.27
2018-09-08T04:26:10.809Z,22.27
2018-09-08T04:27:14.162Z,22.27
2018-09-08T04:28:18.188Z,22.23
2018-09-08T04:29:21.648Z,22.20
2018-09-08T04:30:25.108Z,22.26
2018-09-08T04:31:28.482Z,22.28
2018-09-08T04:32:31.970Z,22.27
2018-09-08T04:33:35.576Z,22.27
2018-09-08T04:34:38.976Z,22.22
2018-09-08T04:35:42.362Z,22.27
2018-09-08T04:36:45.760Z,22.28
2018-09-08T04:37:49.139Z,22.29
2018-09-08T04:38:52.549Z,22.30
2018-09-08T04:39:55.914Z,22.30
2018-09-08T04:40:59.376Z,22.30
2018-09-08T04:42:02.732Z,22.30
2018-09-08T04:43:06.361Z,22.33
2018-09-08T04:44:09.764Z,22.32
2018-09-08T04:45:13.122Z,22.33
2018-09-08T04:46:16.575Z,22.33
2018-09-08T04:47:19.949Z,22.33
2018-09-08T04:48:23.337Z,22.35
2018-09-08T04:49:26.853Z,22.30
2018-09-08T04:50:30.277Z,22.34
2018-09-08T04:51:33.891Z,22.34
2018-09-08T04:52:37.332Z,22.39
2018-09-08T04:53:40.710Z,22.39
2018-09-08T04:54:44.096Z,22.38
2018-09-08T04:55:47.509Z,22.40
2018-09-08T04:56:50.932Z,22.39
2018-09-08T04:57:54.359Z,22.26
2018-09-08T04:58:57.973Z,22.24
2018-09-08T05:00:01.388Z,22.19
2018-09-08T05:01:04.815Z,22.16
2018-09-08T05:02:08.200Z,22.12
2018-09-08T05:03:11.570Z,22.09
2018-09-08T05:04:14.994Z,22.07
2018-09-08T05:05:18.429Z,22.06
2018-09-08T05:06:21.808Z,22.05
2018-09-08T05:07:25.211Z,21.97
2018-09-08T05:08:28.635Z,22.03
2018-09-08T05:09:32.061Z,22.06
2018-09-08T05:10:35.476Z,22.10
2018-09-08T05:11:38.955Z,22.08
2018-09-08T05:12:42.345Z,22.12
2018-09-08T05:13:45.740Z,22.12
2018-09-08T05:14:49.153Z,22.14
2018-09-08T05:15:52.491Z,22.15
2018-09-08T05:16:55.879Z,22.11
2018-09-08T05:17:59.302Z,22.15
2018-09-08T05:19:02.697Z,22.15
2018-09-08T05:20:06.604Z,22.16
2018-09-08T05:21:10.027Z,22.15
2018-09-08T05:22:13.432Z,22.15
2018-09-08T05:23:16.805Z,22.15
2018-09-08T05:24:20.196Z,22.14
2018-09-08T05:25:23.627Z,22.14
2018-09-08T05:26:27.031Z,22.14
2018-09-08T05:27:30.409Z,22.13
2018-09-08T05:28:33.807Z,22.15
2018-09-08T05:29:37.180Z,22.14
2018-09-08T05:30:40.613Z,22.13
2018-09-08T05:31:44.027Z,22.11
2018-09-08T05:32:47.450Z,22.13
2018-09-08T05:33:50.869Z,22.13
2018-09-08T05:34:54.766Z,22.12
2018-09-08T05:35:58.323Z,22.12
2018-09-08T05:37:01.797Z,22.11
2018-09-08T05:38:05.313Z,22.06
2018-09-08T05:39:08.973Z,22.11
2018-09-08T05:40:12.387Z,22.11
2018-09-08T05:41:15.815Z,22.06
2018-09-08T05:42:19.438Z,22.09
2018-09-08T05:43:22.855Z,22.11
2018-09-08T05:44:26.240Z,22.10
2018-09-08T05:45:29.650Z,22.10
2018-09-08T05:46:33.294Z,22.07
2018-09-08T05:47:36.662Z,22.09
2018-09-08T05:48:40.096Z,22.10
2018-09-08T05:49:43.708Z,22.09
2018-09-08T05:50:47.156Z,22.03
2018-09-08T05:51:50.556Z,22.08
2018-09-08T05:52:54.001Z,22.08
2018-09-08T05:53:57.659Z,22.09
2018-09-08T05:55:01.283Z,22.07
2018-09-08T05:56:04.694Z,22.08
2018-09-08T05:57:08.346Z,22.08
2018-09-08T05:58:11.742Z,22.08
2018-09-08T05:59:15.176Z,22.07
2018-09-08T06:00:18.569Z,22.07
2018-09-08T06:01:21.963Z,22.07
2018-09-08T06:02:25.384Z,22.08
2018-09-08T06:03:28.776Z,22.07
2018-09-08T06:04:32.292Z,22.06
2018-09-08T06:05:35.701Z,22.06
2018-09-08T06:06:39.385Z,22.05
2018-09-08T06:07:42.830Z,22.06
2018-09-08T06:08:46.217Z,22.06
2018-09-08T06:09:49.613Z,22.05
2018-09-08T06:10:53.023Z,22.05
2018-09-08T06:12:58.798Z,22.04
2018-09-08T06:14:02.372Z,22.06
2018-09-08T06:15:06.100Z,22.05
2018-09-08T06:16:09.563Z,22.01
2018-09-08T06:17:12.962Z,22.03
2018-09-08T06:18:16.482Z,22.03
2018-09-08T06:19:19.887Z,22.03
2018-09-08T06:20:23.272Z,22.03
2018-09-08T06:21:26.709Z,22.02
2018-09-08T06:22:30.170Z,22.03
2018-09-08T06:23:33.723Z,22.03
2018-09-08T06:24:37.216Z,22.02
2018-09-08T06:25:40.682Z,22.02
2018-09-08T06:26:44.181Z,22.01
2018-09-08T06:27:47.557Z,22.01
2018-09-08T06:28:51.161Z,22.02
2018-09-08T06:29:55.408Z,22.01
2018-09-08T06:30:58.940Z,21.98
2018-09-08T06:32:02.444Z,22.01
2018-09-08T06:33:05.909Z,21.96
2018-09-08T06:34:09.305Z,22.00
2018-09-08T06:35:12.748Z,22.00
2018-09-08T06:36:16.121Z,22.00
2018-09-08T06:37:19.546Z,22.00
2018-09-08T06:38:22.967Z,21.99
2018-09-08T06:39:26.353Z,21.99
2018-09-08T06:40:29.773Z,22.00
2018-09-08T06:41:33.141Z,22.00
2018-09-08T06:42:36.579Z,22.00
2018-09-08T06:43:39.959Z,22.01
2018-09-08T06:44:43.386Z,22.00
2018-09-08T06:45:46.764Z,22.00
2018-09-08T06:46:50.147Z,22.00
2018-09-08T06:47:53.559Z,22.01
2018-09-08T06:48:56.998Z,22.00
2018-09-08T06:50:00.433Z,22.00
2018-09-08T06:51:03.878Z,22.01
2018-09-08T06:52:07.370Z,21.96
2018-09-08T06:53:10.738Z,22.01
2018-09-08T06:54:14.106Z,22.01
2018-09-08T06:55:17.566Z,22.01
2018-09-08T06:56:20.937Z,22.00
2018-09-08T06:57:24.325Z,22.01
2018-09-08T06:58:27.732Z,21.96
2018-09-08T06:59:31.144Z,22.00
2018-09-08T07:00:34.536Z,22.01
2018-09-08T07:01:37.963Z,22.00
2018-09-08T07:02:41.371Z,21.96
2018-09-08T07:03:44.912Z,22.00
2018-09-08T07:04:48.306Z,22.00
2018-09-08T07:05:51.714Z,21.99
2018-09-08T07:06:55.375Z,22.01
2018-09-08T07:07:58.819Z,22.01
2018-09-08T07:09:02.243Z,22.00
2018-09-08T07:10:06.412Z,21.97
2018-09-08T07:11:09.816Z,21.99
2018-09-08T07:12:13.223Z,21.99
2018-09-08T07:13:16.671Z,21.98
2018-09-08T07:14:20.070Z,21.98
2018-09-08T07:15:23.466Z,21.98
2018-09-08T07:16:26.814Z,21.99
2018-09-08T07:17:30.598Z,21.97
2018-09-08T07:18:33.998Z,21.92
2018-09-08T07:19:37.712Z,21.97
2018-09-08T07:20:41.189Z,21.94
2018-09-08T07:21:44.574Z,21.97
2018-09-08T07:22:47.976Z,21.97
2018-09-08T07:23:51.423Z,21.93
2018-09-08T07:24:55.176Z,21.96
2018-09-08T07:25:58.555Z,21.90
2018-09-08T07:27:02.107Z,21.94
2018-09-08T07:28:05.792Z,21.97
2018-09-08T07:29:09.217Z,21.96
2018-09-08T07:30:12.603Z,21.98
2018-09-08T07:31:16.028Z,21.98
2018-09-08T07:32:19.488Z,21.99
2018-09-08T07:33:22.887Z,21.98
2018-09-08T07:34:26.268Z,21.95
2018-09-08T07:35:29.909Z,21.98
2018-09-08T07:36:33.376Z,21.98
2018-09-08T07:37:36.813Z,21.98
2018-09-08T07:38:40.193Z,21.98
2018-09-08T07:39:43.563Z,21.98
2018-09-08T07:40:46.959Z,21.98
2018-09-08T07:41:50.368Z,21.97
2018-09-08T07:42:53.749Z,21.98
2018-09-08T07:43:57.191Z,21.99
2018-09-08T07:45:00.694Z,21.94
2018-09-08T07:46:04.198Z,21.98
2018-09-08T07:47:07.592Z,21.94
2018-09-08T07:48:10.942Z,21.98
2018-09-08T07:49:14.351Z,21.99
2018-09-08T07:50:17.768Z,21.98
2018-09-08T07:51:21.249Z,22.00
2018-09-08T07:52:24.606Z,22.01
2018-09-08T07:53:28.048Z,22.00
2018-09-08T07:54:31.425Z,21.93
2018-09-08T07:55:35.022Z,21.97
2018-09-08T07:56:38.479Z,22.00
2018-09-08T07:57:41.867Z,22.01
2018-09-08T07:58:45.276Z,22.02
2018-09-08T07:59:48.662Z,22.02
2018-09-08T08:00:52.426Z,22.02
2018-09-08T08:01:55.864Z,22.02
2018-09-08T08:02:59.310Z,22.03
2018-09-08T08:04:02.810Z,22.02
2018-09-08T08:05:06.213Z,22.03
2018-09-08T08:06:09.631Z,21.99
2018-09-08T08:07:14.467Z,22.02
2018-09-08T08:08:17.893Z,22.00
2018-09-08T08:09:21.268Z,22.07
2018-09-08T08:10:24.663Z,22.09
2018-09-08T08:11:28.062Z,22.08
2018-09-08T08:12:31.515Z,22.14
2018-09-08T08:13:34.909Z,22.16
2018-09-08T08:14:38.550Z,22.18
2018-09-08T08:15:41.917Z,22.19
2018-09-08T08:16:45.313Z,22.21
2018-09-08T08:17:48.730Z,22.21
2018-09-08T08:18:52.179Z,22.21
2018-09-08T08:19:55.580Z,22.22
2018-09-08T08:20:59.371Z,22.21
2018-09-08T08:22:02.892Z,22.21
2018-09-08T08:23:06.408Z,22.20
2018-09-08T08:24:09.817Z,22.19
2018-09-08T08:25:13.304Z,22.19
2018-09-08T08:26:16.711Z,22.14
2018-09-08T08:27:20.333Z,22.15
2018-09-08T08:28:23.753Z,22.18
2018-09-08T08:29:27.103Z,22.19
2018-09-08T08:30:30.548Z,22.20
2018-09-08T08:31:33.945Z,22.23
2018-09-08T08:32:37.324Z,22.20
2018-09-08T08:33:40.975Z,22.20
2018-09-08T08:34:44.420Z,22.20
2018-09-08T08:35:47.848Z,22.16
2018-09-08T08:36:51.584Z,22.19
2018-09-08T08:37:55.013Z,22.18
2018-09-08T08:38:58.442Z,22.14
2018-09-08T08:40:01.924Z,22.15
2018-09-08T08:41:06.349Z,22.12
2018-09-08T08:42:09.798Z,22.10
2018-09-08T08:43:13.372Z,22.05
2018-09-08T08:44:16.744Z,21.99
2018-09-08T08:45:20.153Z,21.93
2018-09-08T08:46:23.808Z,21.89
2018-09-08T08:47:27.277Z,21.85
2018-09-08T08:48:30.761Z,21.84
2018-09-08T08:49:34.341Z,21.82
2018-09-08T08:50:49.036Z,21.76
2018-09-08T08:52:03.745Z,21.72
2018-09-08T08:53:18.525Z,21.65
2018-09-08T08:54:27.985Z,21.64
2018-09-08T08:55:31.387Z,21.63
2018-09-08T08:56:34.802Z,21.68
2018-09-08T08:57:38.234Z,21.66
2018-09-08T08:58:41.671Z,21.64
2018-09-08T08:59:45.096Z,21.64
2018-09-08T09:00:48.825Z,21.62
2018-09-08T09:01:52.215Z,21.61
2018-09-08T09:02:55.716Z,21.61
2018-09-08T09:03:59.274Z,21.61
2018-09-08T09:05:02.765Z,21.63
2018-09-08T09:06:06.328Z,21.61
2018-09-08T09:07:12.226Z,21.65
2018-09-08T09:08:15.656Z,21.67
2018-09-08T09:09:18.758Z,21.73
2018-09-08T09:10:22.185Z,21.74
2018-09-08T09:11:25.695Z,21.76
2018-09-08T09:12:29.125Z,21.70
2018-09-08T09:13:32.597Z,21.74
2018-09-08T09:14:36.289Z,21.75
2018-09-08T09:15:39.484Z,21.75
2018-09-08T09:16:42.952Z,21.74
2018-09-08T09:17:46.400Z,21.76
2018-09-08T09:19:01.588Z,21.75
2018-09-08T09:20:15.942Z,21.71
2018-09-08T09:21:30.800Z,21.63
2018-09-08T09:22:45.613Z,21.64
2018-09-08T09:24:59.277Z,21.62
2018-09-08T09:26:02.655Z,21.59
2018-09-08T09:27:06.190Z,21.61
2018-09-08T09:28:09.586Z,21.62
2018-09-08T09:29:13.001Z,21.63
2018-09-08T09:30:17.041Z,21.63
2018-09-08T09:31:20.428Z,21.61
2018-09-08T09:32:23.852Z,21.62
2018-09-08T09:33:27.230Z,21.62
2018-09-08T09:34:30.909Z,21.62
2018-09-08T09:35:34.313Z,21.61
2018-09-08T09:36:37.724Z,21.60
2018-09-08T09:37:41.408Z,21.64
2018-09-08T09:38:44.827Z,21.64
2018-09-08T09:39:48.589Z,21.64
2018-09-08T09:40:51.997Z,21.64
2018-09-08T09:41:55.350Z,21.67
2018-09-08T09:42:58.823Z,21.67
2018-09-08T09:44:02.488Z,21.66
2018-09-08T09:45:06.234Z,21.65
2018-09-08T09:46:09.614Z,21.64
2018-09-08T09:47:13.013Z,21.65
2018-09-08T09:48:16.501Z,21.66
2018-09-08T09:49:19.980Z,21.67
2018-09-08T09:50:23.346Z,21.67
2018-09-08T09:51:26.780Z,21.68
2018-09-08T09:52:30.233Z,21.67
2018-09-08T09:53:33.629Z,21.69
2018-09-08T09:54:37.011Z,21.66
2018-09-08T09:55:40.428Z,21.69
2018-09-08T09:56:43.820Z,21.69
2018-09-08T09:57:47.253Z,21.68
2018-09-08T09:58:50.668Z,21.68
2018-09-08T09:59:54.089Z,21.67
2018-09-08T10:01:02.776Z,21.66
2018-09-08T10:02:40.081Z,21.65
2018-09-08T10:03:43.507Z,21.63
2018-09-08T10:04:46.913Z,21.61
2018-09-08T10:05:50.337Z,21.59
2018-09-08T10:06:54.435Z,21.59
2018-09-08T10:07:57.853Z,21.58
2018-09-08T10:09:01.385Z,21.58
2018-09-08T10:10:05.207Z,21.57
2018-09-08T10:11:08.603Z,21.57
2018-09-08T10:12:12.073Z,21.51
2018-09-08T10:13:15.416Z,21.57
2018-09-08T10:14:19.297Z,21.56
2018-09-08T10:15:22.709Z,21.53
2018-09-08T10:16:26.168Z,21.55
2018-09-08T10:17:29.576Z,21.55
2018-09-08T10:18:33.028Z,21.55
2018-09-08T10:19:36.440Z,21.55
2018-09-08T10:20:39.852Z,21.55
2018-09-08T10:21:44.110Z,21.55
2018-09-08T10:22:47.546Z,21.52
2018-09-08T10:24:04.342Z,21.52
2018-09-08T10:24:54.397Z,21.52
2018-09-08T10:25:57.895Z,21.52
2018-09-08T10:27:01.409Z,21.49
2018-09-08T10:28:04.881Z,21.50
2018-09-08T10:29:08.245Z,21.49
2018-09-08T10:30:12.456Z,21.50
2018-09-08T10:31:15.878Z,21.51
2018-09-08T10:32:19.372Z,21.48
2018-09-08T10:33:22.752Z,21.47
2018-09-08T10:34:26.162Z,21.45
2018-09-08T10:35:29.552Z,21.46
2018-09-08T10:36:33.023Z,21.46
2018-09-08T10:37:36.515Z,21.48
2018-09-08T10:38:40.079Z,21.48
2018-09-08T10:39:43.501Z,21.49
2018-09-08T10:40:47.008Z,21.52
2018-09-08T10:41:50.423Z,21.52
2018-09-08T10:42:53.824Z,21.53
2018-09-08T10:43:57.310Z,21.54
2018-09-08T10:45:00.877Z,21.55
2018-09-08T10:46:04.474Z,21.55
2018-09-08T10:47:08.151Z,21.58
2018-09-08T10:48:11.554Z,21.59
2018-09-08T10:49:14.981Z,21.60
2018-09-08T10:50:18.421Z,21.61
2018-09-08T10:51:49.417Z,21.56
2018-09-08T10:52:52.836Z,21.62
2018-09-08T10:53:56.246Z,21.65
2018-09-08T10:54:59.720Z,21.64
2018-09-08T10:56:03.223Z,21.62
2018-09-08T10:57:06.812Z,21.63
2018-09-08T10:58:10.217Z,21.64
2018-09-08T10:59:14.851Z,21.62
2018-09-08T11:00:19.117Z,21.61
2018-09-08T11:01:22.876Z,21.61
2018-09-08T11:02:26.521Z,21.60
2018-09-08T11:03:30.483Z,21.56
2018-09-08T11:04:34.213Z,21.59
2018-09-08T11:05:37.627Z,21.57
2018-09-08T11:06:41.012Z,21.57
2018-09-08T11:07:44.390Z,21.56
2018-09-08T11:08:47.777Z,21.55
2018-09-08T11:09:51.200Z,21.49
2018-09-08T11:10:54.628Z,21.53
2018-09-08T11:11:58.016Z,21.51
2018-09-08T11:13:01.524Z,21.51
2018-09-08T11:14:05.078Z,21.51
2018-09-08T11:15:10.024Z,21.50
2018-09-08T11:16:13.454Z,21.51
2018-09-08T11:17:16.964Z,21.50
2018-09-08T11:18:20.380Z,21.49
2018-09-08T11:19:23.837Z,21.47
2018-09-08T11:20:27.257Z,21.48
2018-09-08T11:21:30.679Z,21.47
2018-09-08T11:22:34.076Z,21.48
2018-09-08T11:23:37.471Z,21.48
2018-09-08T11:24:40.880Z,21.48
2018-09-08T11:25:44.281Z,21.47
2018-09-08T11:26:47.731Z,21.46
2018-09-08T11:27:51.162Z,21.48
2018-09-08T11:28:54.556Z,21.47
2018-09-08T11:29:58.012Z,21.38
2018-09-08T11:31:01.515Z,21.47
2018-09-08T11:32:04.969Z,21.47
2018-09-08T11:33:08.346Z,21.46
2018-09-08T11:34:11.764Z,21.46
2018-09-08T11:35:15.344Z,21.46
2018-09-08T11:36:18.744Z,21.46
2018-09-08T11:37:22.114Z,21.46
2018-09-08T11:38:25.623Z,21.45
2018-09-08T11:39:28.953Z,21.46
2018-09-08T11:40:32.436Z,21.45
2018-09-08T11:41:36.567Z,21.46
2018-09-08T11:42:39.975Z,21.46
2018-09-08T11:43:43.387Z,21.45
2018-09-08T11:44:46.835Z,21.45
2018-09-08T11:45:50.417Z,21.45
2018-09-08T11:46:53.812Z,21.44
2018-09-08T11:47:57.256Z,21.45
2018-09-08T11:49:01.797Z,21.44
2018-09-08T11:50:05.395Z,21.45
2018-09-08T11:51:08.849Z,21.43
2018-09-08T11:52:12.404Z,21.43
2018-09-08T11:53:15.794Z,21.43
2018-09-08T11:54:19.176Z,21.44
2018-09-08T11:55:22.692Z,21.45
2018-09-08T11:56:26.235Z,21.45
2018-09-08T11:57:29.629Z,21.41
2018-09-08T11:58:33.047Z,21.46
2018-09-08T11:59:36.437Z,21.46
2018-09-08T12:00:39.873Z,21.46
2018-09-08T12:01:43.318Z,21.45
2018-09-08T12:02:46.718Z,21.47
2018-09-08T12:03:50.218Z,21.47
2018-09-08T12:04:53.705Z,21.46
2018-09-08T12:05:57.089Z,21.47
2018-09-08T12:07:00.591Z,21.48
2018-09-08T12:08:04.030Z,21.48
2018-09-08T12:09:09.625Z,21.49
2018-09-08T12:10:13.009Z,21.45
2018-09-08T12:11:16.427Z,21.48
2018-09-08T12:12:19.972Z,21.48
2018-09-08T12:13:23.362Z,21.49
2018-09-08T12:14:26.778Z,21.50
2018-09-08T12:15:30.218Z,21.48
2018-09-08T12:16:33.694Z,21.49
2018-09-08T12:17:37.127Z,21.50
2018-09-08T12:18:40.586Z,21.50
2018-09-08T12:19:43.984Z,21.46
2018-09-08T12:20:47.366Z,21.50
2018-09-08T12:21:50.816Z,21.51
2018-09-08T12:22:54.223Z,21.47
2018-09-08T12:23:57.648Z,21.50
2018-09-08T12:25:01.104Z,21.50
2018-09-08T12:26:04.510Z,21.51
2018-09-08T12:27:07.914Z,21.49
2018-09-08T12:28:11.317Z,21.50
2018-09-08T12:29:14.748Z,21.51
2018-09-08T12:30:18.176Z,21.50
2018-09-08T12:31:21.719Z,21.50
2018-09-08T12:32:25.128Z,21.51
2018-09-08T12:33:28.525Z,21.51
2018-09-08T12:34:32.131Z,21.50
2018-09-08T12:35:35.619Z,21.46
2018-09-08T12:36:38.993Z,21.51
2018-09-08T12:37:42.388Z,21.47
2018-09-08T12:38:45.812Z,21.52
2018-09-08T12:39:50.334Z,21.51
2018-09-08T12:40:53.756Z,21.50
2018-09-08T12:41:57.191Z,21.52
2018-09-08T12:43:00.616Z,21.51
2018-09-08T12:44:04.135Z,21.51
2018-09-08T12:45:07.627Z,21.52
2018-09-08T12:46:11.028Z,21.51
2018-09-08T12:47:14.465Z,21.47
2018-09-08T12:48:18.105Z,21.51
2018-09-08T12:49:21.562Z,21.47
2018-09-08T12:50:24.956Z,21.51
2018-09-08T12:51:28.331Z,21.51
2018-09-08T12:52:31.743Z,21.51
2018-09-08T12:53:35.187Z,21.51
2018-09-08T12:54:38.599Z,21.51
2018-09-08T12:55:41.994Z,21.51
2018-09-08T12:56:45.413Z,21.51
2018-09-08T12:57:48.814Z,21.51
2018-09-08T12:58:52.188Z,21.51
2018-09-08T12:59:55.588Z,21.52
2018-09-08T13:00:59.099Z,21.52
2018-09-08T13:02:02.920Z,21.51
2018-09-08T13:03:06.695Z,21.52
2018-09-08T13:04:10.070Z,21.52
2018-09-08T13:05:13.484Z,21.54
2018-09-08T13:06:16.941Z,21.49
2018-09-08T13:07:20.299Z,21.53
2018-09-08T13:08:23.712Z,21.54
2018-09-08T13:09:27.131Z,21.57
2018-09-08T13:10:30.583Z,21.59
2018-09-08T13:11:33.991Z,21.62
2018-09-08T13:12:37.442Z,21.64
2018-09-08T13:13:40.835Z,21.65
2018-09-08T13:14:44.231Z,21.67
2018-09-08T13:15:47.648Z,21.69
2018-09-08T13:16:51.058Z,21.69
2018-09-08T13:17:54.465Z,21.70
2018-09-08T13:18:57.846Z,21.71
2018-09-08T13:20:01.228Z,21.74
2018-09-08T13:21:04.866Z,21.75
2018-09-08T13:22:08.285Z,21.70
2018-09-08T13:23:11.724Z,21.77
2018-09-08T13:24:15.170Z,21.78
2018-09-08T13:25:18.577Z,21.77
2018-09-08T13:26:22.016Z,21.78
2018-09-08T13:27:25.471Z,21.80
2018-09-08T13:28:28.877Z,21.82
2018-09-08T13:29:32.277Z,21.82
2018-09-08T13:30:35.761Z,21.83
2018-09-08T13:31:39.332Z,21.81
2018-09-08T13:32:42.744Z,21.86
2018-09-08T13:33:46.177Z,21.84
2018-09-08T13:34:49.562Z,21.85
2018-09-08T13:35:52.970Z,21.83
2018-09-08T13:36:56.389Z,21.84
2018-09-08T13:37:59.764Z,21.84
2018-09-08T13:39:03.590Z,21.83
2018-09-08T13:40:06.987Z,21.82
2018-09-08T13:41:10.474Z,21.81
2018-09-08T13:42:13.879Z,21.81